Overbrook, West Virginia
Current Conditions -  °F | °C
As of 6:53 PM on Wednesday 26 Nov 2014 (Local Time) from KHLG Reporting Station
Haze Haze  
Wind Chill: 32°   Ceiling: 500
Heat Index: 32°   Visibility: 4mi
Dew Point: 30°   Wind: 0mph
Humidity: 92%   Direction: NA
Pressure: 30"   Gusts: NA
Location:  40.0729°N, 80.6524°W
Report Text: KHLG 262353Z 00000KT 4SM BR OVC005 00/M01 A3000 RMK AO2 SLP176 60000 T00001011 10000 21006 57001
Loading
Personal Weather Stations






























Interactive Weather Map New forecast layout! Learn more

10-Day Weather Forecast

Advertisements
Track Severe Weather on mobile